Time;durP1;ratioP1;P1;durP2;ratioP2;P2;SDS_P1;SDS_P2;PMS_P1;PMS_P2;Temp;Humidity;BMP_temperature;BMP_pressure;BME280_temperature;BME280_humidity;BME280_pressure;Samples;Min_cycle;Max_cycle;Signal;HPM_P1;HPM_P2
2022/07/01 00:01:25;;;;;;;;;1.00;1.00;;;;;17.22;57.21;101394.69;5039035;28;65994;-57
2022/07/01 00:03:50;;;;;;;;;2.00;1.00;;;;;17.17;57.22;101384.25;5055439;28;47103;-56
2022/07/01 00:06:19;;;;;;;;;1.00;1.00;;;;;17.15;57.22;101386.19;5057877;28;45444;-56
2022/07/01 00:08:45;;;;;;;;;1.00;1.00;;;;;17.12;57.41;101387.25;5047547;28;45575;-56
2022/07/01 00:11:10;;;;;;;;;0.00;0.00;;;;;17.10;57.40;101391.00;5058988;28;45399;-56
2022/07/01 00:13:36;;;;;;;;;3.00;1.00;;;;;17.08;57.95;101383.06;5058675;28;45539;-55
2022/07/01 00:16:01;;;;;;;;;0.00;0.00;;;;;17.06;57.95;101390.34;5058573;28;73328;-56
2022/07/01 00:18:26;;;;;;;;;1.00;1.00;;;;;17.01;57.63;101392.50;5057932;28;67600;-56
2022/07/01 00:20:52;;;;;;;;;2.00;1.00;;;;;16.97;57.77;101399.94;5067365;28;69418;-56
2022/07/01 00:23:18;;;;;;;;;0.33;0.33;;;;;16.97;58.26;101402.59;5058262;28;46257;-56
2022/07/01 00:25:44;;;;;;;;;1.00;1.00;;;;;16.96;58.08;101400.88;5057327;28;45424;-56
2022/07/01 00:28:10;;;;;;;;;1.00;1.00;;;;;16.97;57.85;101401.72;5063757;28;45571;-56
2022/07/01 00:30:35;;;;;;;;;2.00;2.00;;;;;16.94;58.44;101405.47;5057739;28;45401;-55
2022/07/01 00:33:00;;;;;;;;;1.67;1.67;;;;;16.92;58.54;101415.50;5058117;28;56547;-55
2022/07/01 00:35:26;;;;;;;;;2.00;2.00;;;;;16.88;58.75;101408.53;5056859;28;45408;-55
2022/07/01 00:37:51;;;;;;;;;3.67;2.00;;;;;16.88;58.83;101413.91;5058023;28;66389;-56
2022/07/01 00:40:16;;;;;;;;;2.00;2.00;;;;;16.91;58.60;101407.50;5058551;28;45422;-56
2022/07/01 00:42:43;;;;;;;;;0.33;0.33;;;;;16.90;58.51;101412.03;5062959;28;45263;-55
2022/07/01 00:45:10;;;;;;;;;1.00;1.00;;;;;16.92;58.88;101417.28;5055712;28;45429;-55
2022/07/01 00:47:39;;;;;;;;;2.00;2.00;;;;;16.87;58.43;101417.59;5057202;28;45288;-56
2022/07/01 00:50:10;;;;;;;;;2.33;1.00;;;;;16.86;58.76;101413.19;5057216;28;45383;-55
2022/07/01 00:52:36;;;;;;;;;1.00;1.00;;;;;16.87;58.81;101420.28;5059398;28;46532;-55
2022/07/01 00:55:03;;;;;;;;;2.67;2.00;;;;;16.86;58.75;101426.59;5058833;28;69004;-55
2022/07/01 00:57:30;;;;;;;;;1.00;0.67;;;;;16.84;58.63;101426.72;5052301;28;45408;-56
2022/07/01 00:59:55;;;;;;;;;1.00;1.00;;;;;16.82;58.69;101425.94;5046394;28;45465;-56
2022/07/01 01:02:21;;;;;;;;;0.00;0.00;;;;;16.80;59.01;101427.84;5063959;28;45651;-55
2022/07/01 01:04:47;;;;;;;;;1.00;1.00;;;;;16.80;58.75;101421.63;5056818;28;72511;-56
2022/07/01 01:07:13;;;;;;;;;2.00;2.00;;;;;16.76;59.08;101431.72;5060015;28;45475;-55
2022/07/01 01:09:38;;;;;;;;;0.33;0.33;;;;;16.75;59.13;101438.06;5046318;28;45380;-55
2022/07/01 01:12:04;;;;;;;;;0.67;0.67;;;;;16.73;58.82;101440.00;5058688;28;45688;-55
2022/07/01 01:14:29;;;;;;;;;1.00;1.00;;;;;16.72;59.44;101442.78;5057054;28;45584;-55
2022/07/01 01:16:55;;;;;;;;;1.00;1.00;;;;;16.66;59.53;101436.84;5056777;28;64773;-56
2022/07/01 01:19:20;;;;;;;;;1.00;1.00;;;;;16.66;59.25;101441.34;5057803;28;52890;-56
2022/07/01 01:21:46;;;;;;;;;1.00;1.00;;;;;16.66;59.65;101444.91;5056752;28;46136;-56
2022/07/01 01:24:11;;;;;;;;;1.00;1.00;;;;;16.65;59.72;101442.31;5056496;28;45372;-56
2022/07/01 01:26:38;;;;;;;;;2.00;2.00;;;;;16.60;59.84;101447.97;5057595;28;61798;-56
2022/07/01 01:29:04;;;;;;;;;2.00;2.00;;;;;16.55;59.69;101447.41;5068071;28;45628;-55
2022/07/01 01:31:31;;;;;;;;;2.67;2.67;;;;;16.49;59.90;101448.69;5056148;28;58392;-56
2022/07/01 01:33:57;;;;;;;;;1.00;1.00;;;;;16.47;60.06;101457.81;5066588;28;45445;-56
2022/07/01 01:36:22;;;;;;;;;4.33;1.00;;;;;16.45;59.84;101443.59;5062940;27;45411;-56
2022/07/01 01:38:47;;;;;;;;;2.00;2.00;;;;;16.43;60.21;101462.50;5055645;28;69864;-55
2022/07/01 01:41:13;;;;;;;;;2.00;2.00;;;;;16.41;60.10;101463.56;5057585;28;46007;-57
2022/07/01 01:43:38;;;;;;;;;2.00;2.00;;;;;16.37;60.39;101463.78;5065723;28;45414;-56
2022/07/01 01:46:04;;;;;;;;;5.00;1.33;;;;;16.34;60.46;101469.31;5059623;28;45528;-55
2022/07/01 01:48:30;;;;;;;;;2.67;1.67;;;;;16.33;60.19;101458.69;5055064;28;45486;-54
2022/07/01 01:50:56;;;;;;;;;1.33;1.33;;;;;16.33;60.14;101472.97;5055222;28;46007;-56
2022/07/01 01:53:21;;;;;;;;;1.33;1.33;;;;;16.34;60.54;101468.47;5055529;28;45462;-56
2022/07/01 01:55:47;;;;;;;;;2.00;2.00;;;;;16.32;60.73;101473.06;5050530;28;45720;-56
2022/07/01 01:58:12;;;;;;;;;1.33;1.33;;;;;16.30;60.60;101473.16;5059691;28;68387;-56
2022/07/01 02:00:37;;;;;;;;;4.00;2.33;;;;;16.30;60.74;101473.16;5061839;28;46238;-56
2022/07/01 02:03:03;;;;;;;;;3.00;1.00;;;;;16.30;60.79;101465.09;5062381;28;73207;-55
2022/07/01 02:05:30;;;;;;;;;2.00;2.00;;;;;16.29;60.80;101471.44;5058797;28;55966;-56
2022/07/01 02:07:55;;;;;;;;;4.00;2.00;;;;;16.30;60.47;101472.31;5054528;28;45580;-56
2022/07/01 02:10:21;;;;;;;;;3.00;1.67;;;;;16.29;61.12;101475.94;5059529;28;66467;-56
2022/07/01 02:12:47;;;;;;;;;2.00;1.67;;;;;16.26;60.54;101477.00;5064382;28;45422;-56
2022/07/01 02:15:12;;;;;;;;;1.00;1.00;;;;;16.23;60.52;101476.34;5060121;28;45346;-56
2022/07/01 02:17:37;;;;;;;;;2.00;2.00;;;;;16.18;60.79;101480.19;5060118;28;45501;-56
2022/07/01 02:20:04;;;;;;;;;1.67;1.00;;;;;16.16;60.68;101476.72;5060353;28;45712;-56
2022/07/01 02:22:29;;;;;;;;;2.00;2.00;;;;;16.16;61.24;101483.91;5059683;28;45522;-55
2022/07/01 02:24:54;;;;;;;;;3.00;2.00;;;;;16.15;61.13;101483.06;5059951;28;45421;-55
2022/07/01 02:27:20;;;;;;;;;1.67;1.67;;;;;16.15;61.14;101480.38;5057395;28;61993;-56
2022/07/01 02:29:45;;;;;;;;;3.00;2.00;;;;;16.13;60.95;101481.44;5059287;28;45566;-55
2022/07/01 02:32:10;;;;;;;;;1.00;1.00;;;;;16.11;61.53;101481.50;5075754;28;45360;-56
2022/07/01 02:34:36;;;;;;;;;2.00;2.00;;;;;16.10;61.10;101487.84;5063544;27;62536;-56
2022/07/01 02:37:01;;;;;;;;;4.00;3.00;;;;;16.08;61.47;101492.44;5067443;28;45293;-56
2022/07/01 02:39:27;;;;;;;;;2.33;2.33;;;;;16.02;61.18;101490.13;5058942;28;47901;-56
2022/07/01 02:44:36;;;;;;;;;3.00;3.00;;;;;15.95;61.37;101495.03;5061249;28;45360;-55
2022/07/01 02:47:01;;;;;;;;;5.00;4.00;;;;;15.90;61.91;101496.28;5066555;28;66930;-55
2022/07/01 02:49:28;;;;;;;;;4.67;3.67;;;;;15.87;62.04;101492.81;5057557;28;64971;-56
2022/07/01 02:51:53;;;;;;;;;3.00;3.00;;;;;15.87;61.69;101491.97;5057019;28;69999;-56
2022/07/01 02:54:19;;;;;;;;;2.00;1.00;;;;;15.87;61.53;101500.00;5055011;28;61380;-56
2022/07/01 02:56:44;;;;;;;;;3.00;3.00;;;;;15.88;61.60;101501.72;5060680;28;45488;-56
2022/07/01 02:59:10;;;;;;;;;4.00;4.00;;;;;15.86;61.91;101501.81;5058741;28;73161;-56
2022/07/01 03:01:35;;;;;;;;;4.67;3.33;;;;;15.84;61.79;101506.41;5057420;28;71640;-56
2022/07/01 03:04:00;;;;;;;;;4.33;3.00;;;;;15.83;61.81;101502.00;5060916;28;45568;-56
2022/07/01 03:06:26;;;;;;;;;2.33;2.33;;;;;15.82;61.68;101502.09;5057248;28;45470;-55
2022/07/01 03:08:52;;;;;;;;;4.67;3.00;;;;;15.80;61.98;101498.59;5051952;28;61254;-56
2022/07/01 03:11:17;;;;;;;;;4.67;4.00;;;;;15.78;62.06;101497.84;5057486;28;45884;-56
2022/07/01 03:13:43;;;;;;;;;3.33;2.67;;;;;15.77;62.04;101498.81;5058826;28;63618;-55
2022/07/01 03:16:08;;;;;;;;;2.67;2.67;;;;;15.78;62.50;101509.44;5059887;28;69533;-56
2022/07/01 03:18:33;;;;;;;;;3.00;3.00;;;;;15.76;61.72;101506.00;5058591;28;46578;-55
2022/07/01 03:20:59;;;;;;;;;2.00;2.00;;;;;15.76;61.83;101507.81;5061806;28;62104;-56
2022/07/01 03:23:24;;;;;;;;;4.00;3.00;;;;;15.78;62.11;101500.53;5063273;28;45925;-56
2022/07/01 03:25:49;;;;;;;;;4.67;4.67;;;;;15.80;61.91;101512.00;5058989;28;63482;-56
2022/07/01 03:28:15;;;;;;;;;5.33;2.33;;;;;15.81;61.61;101511.97;5057796;28;71872;-56
2022/07/01 03:30:40;;;;;;;;;3.00;3.00;;;;;15.80;61.65;101515.59;5065956;28;45492;-56
2022/07/01 03:33:05;;;;;;;;;3.00;3.00;;;;;15.81;62.00;101517.34;5068366;27;64115;-56
2022/07/01 03:35:38;;;;;;;;;2.67;2.67;;;;;15.78;61.87;101522.00;5058946;28;66564;-56
2022/07/01 03:38:04;;;;;;;;;2.33;2.33;;;;;15.74;61.71;101523.13;5059185;28;47039;-56
2022/07/01 03:40:30;;;;;;;;;4.00;3.00;;;;;15.69;61.46;101529.63;5059590;28;45770;-55
2022/07/01 03:42:56;;;;;;;;;2.00;2.00;;;;;15.66;62.00;101532.50;5066049;28;45405;-56
2022/07/01 03:45:21;;;;;;;;;2.00;2.00;;;;;15.61;61.46;101529.22;5057720;28;68983;-55
2022/07/01 03:47:48;;;;;;;;;1.67;1.67;;;;;15.57;61.79;101532.19;5058876;28;46351;-55
2022/07/01 03:50:14;;;;;;;;;6.67;2.33;;;;;15.56;61.88;101531.31;5062381;28;45387;-56
2022/07/01 03:52:41;;;;;;;;;1.33;1.33;;;;;15.57;61.88;101532.19;5067579;27;45365;-55
2022/07/01 03:55:08;;;;;;;;;1.00;1.00;;;;;15.58;61.56;101540.16;5057432;28;45536;-55
2022/07/01 03:57:33;;;;;;;;;3.00;1.00;;;;;15.58;61.47;101542.81;5060397;28;46410;-56
2022/07/01 03:59:59;;;;;;;;;2.00;2.00;;;;;15.57;61.05;101546.44;5058697;28;72025;-56
2022/07/01 04:02:24;;;;;;;;;1.00;1.00;;;;;15.54;61.13;101544.81;5057724;28;68263;-55
2022/07/01 04:04:49;;;;;;;;;2.00;2.00;;;;;15.52;61.23;101546.72;5047463;28;65201;-55
2022/07/01 04:07:15;;;;;;;;;2.00;2.00;;;;;15.50;61.49;101545.97;5054801;28;64358;-56
2022/07/01 04:09:40;;;;;;;;;2.00;1.00;;;;;15.50;61.49;101547.75;5057030;28;46648;-56
2022/07/01 04:12:08;;;;;;;;;3.67;2.00;;;;;15.50;61.58;101553.13;5059598;28;62889;-55
2022/07/01 04:14:33;;;;;;;;;1.00;1.00;;;;;15.49;61.69;101549.59;5058960;28;45403;-55
2022/07/01 04:16:58;;;;;;;;;4.00;1.67;;;;;15.45;61.46;101555.22;5064090;27;67023;-54
2022/07/01 04:19:24;;;;;;;;;2.00;2.00;;;;;15.39;61.23;101556.44;5062013;28;45496;-55
2022/07/01 04:24:34;;;;;;;;;0.67;0.67;;;;;15.36;61.30;101559.31;5057483;28;45472;-57
2022/07/01 04:27:00;;;;;;;;;2.67;1.00;;;;;15.35;61.37;101566.47;5059084;28;45253;-57
2022/07/01 04:29:27;;;;;;;;;2.33;0.67;;;;;15.32;61.31;101563.97;5064203;28;45524;-57
2022/07/01 04:31:52;;;;;;;;;2.00;2.00;;;;;15.32;61.43;101565.81;5066237;28;45380;-57
2022/07/01 04:34:18;;;;;;;;;1.00;1.00;;;;;15.30;61.30;101565.88;5058576;28;45395;-56
2022/07/01 04:36:43;;;;;;;;;2.00;2.00;;;;;15.29;61.46;101566.84;5057273;28;47088;-56
2022/07/01 04:39:08;;;;;;;;;3.33;1.67;;;;;15.27;61.58;101568.75;5063662;28;45382;-56
2022/07/01 04:44:18;;;;;;;;;1.33;1.33;;;;;15.28;61.82;101564.22;5063542;28;45407;-56
2022/07/01 04:46:44;;;;;;;;;1.00;1.00;;;;;15.32;61.23;101560.44;5057276;28;46955;-55
2022/07/01 04:49:10;;;;;;;;;2.00;2.00;;;;;15.34;61.21;101569.25;5057254;28;45611;-57
2022/07/01 04:51:35;;;;;;;;;2.00;2.00;;;;;15.30;61.82;101565.88;5055835;28;65629;-55
2022/07/01 04:54:02;;;;;;;;;1.00;1.00;;;;;15.26;61.80;101572.38;5063730;28;45743;-56
2022/07/01 04:56:28;;;;;;;;;3.33;2.00;;;;;15.25;61.39;101576.00;5057309;28;45631;-56
2022/07/01 04:58:54;;;;;;;;;1.67;1.67;;;;;15.20;61.38;101584.31;5061817;28;45762;-57
2022/07/01 05:01:20;;;;;;;;;2.00;2.00;;;;;15.19;61.95;101587.94;5048061;28;45453;-56
2022/07/01 05:03:45;;;;;;;;;1.33;1.33;;;;;15.22;61.84;101582.38;5056334;28;45500;-56
2022/07/01 05:06:10;;;;;;;;;2.33;2.33;;;;;15.27;61.92;101586.66;5047616;28;46956;-57
2022/07/01 05:08:36;;;;;;;;;5.00;3.00;;;;;15.29;62.02;101590.09;5056390;28;70873;-57
2022/07/01 05:11:01;;;;;;;;;3.33;2.67;;;;;15.31;61.84;101591.72;5056046;28;66223;-57
2022/07/01 05:13:26;;;;;;;;;5.00;4.00;;;;;15.34;61.69;101591.56;5048548;28;63714;-57
2022/07/01 05:15:52;;;;;;;;;2.33;2.33;;;;;15.36;61.48;101591.47;5053793;28;45450;-57
2022/07/01 05:23:45;;;;;;;;;3.00;2.33;;;;;15.44;61.42;101596.41;5052949;28;45833;-57
2022/07/01 05:26:16;;;;;;;;;4.00;3.00;;;;;15.43;61.29;101597.34;5048810;28;45657;-57
2022/07/01 05:28:42;;;;;;;;;2.33;2.33;;;;;15.44;61.35;101594.56;5052662;28;45476;-57
2022/07/01 05:31:07;;;;;;;;;3.00;3.00;;;;;15.43;61.62;101600.88;5054141;28;45465;-57
2022/07/01 05:33:32;;;;;;;;;5.00;3.33;;;;;15.43;60.96;101600.03;5053223;28;67997;-58
2022/07/01 05:35:58;;;;;;;;;3.00;1.33;;;;;15.45;61.60;101595.41;5072911;28;70205;-57
2022/07/01 05:38:23;;;;;;;;;2.00;2.00;;;;;15.44;61.54;101585.66;5062661;28;66321;-57
2022/07/01 05:40:48;;;;;;;;;3.67;3.00;;;;;15.43;61.36;101589.31;5061858;28;60072;-57
2022/07/01 05:43:14;;;;;;;;;2.00;2.00;;;;;15.44;61.05;101596.41;5064426;28;45809;-57
2022/07/01 05:45:39;;;;;;;;;3.00;3.00;;;;;15.45;60.95;101596.31;5072409;28;45501;-57
2022/07/01 05:48:04;;;;;;;;;3.00;3.00;;;;;15.45;60.83;101601.66;5063880;28;68209;-56
2022/07/01 05:50:30;;;;;;;;;3.33;2.00;;;;;15.47;61.04;101599.75;5059126;28;45331;-57
2022/07/01 05:52:55;;;;;;;;;5.00;4.00;;;;;15.52;60.71;101610.22;5060307;28;58789;-57
2022/07/01 05:55:20;;;;;;;;;3.67;3.00;;;;;15.56;61.23;101609.06;5065173;28;71105;-57
2022/07/01 05:57:46;;;;;;;;;3.00;1.67;;;;;15.60;60.50;101610.63;5054531;28;71722;-57
2022/07/01 06:00:12;;;;;;;;;5.00;1.33;;;;;15.62;60.71;101605.16;5065028;28;48858;-57
2022/07/01 06:02:37;;;;;;;;;1.00;1.00;;;;;15.63;60.33;101602.41;5063606;28;45517;-57
2022/07/01 06:05:03;;;;;;;;;3.67;3.67;;;;;15.66;60.38;101601.38;5065636;28;45504;-57
2022/07/01 06:07:29;;;;;;;;;3.00;3.00;;;;;15.66;60.47;101607.59;5054336;28;45419;-56
2022/07/01 06:09:55;;;;;;;;;2.33;2.33;;;;;15.68;60.32;101613.72;5062911;28;45848;-57
2022/07/01 06:12:20;;;;;;;;;5.67;2.00;;;;;15.70;59.89;101614.47;5067000;28;45346;-52
2022/07/01 06:14:46;;;;;;;;;1.67;1.33;;;;;15.77;60.41;101619.50;5069055;28;46265;-56
2022/07/01 06:17:12;;;;;;;;;3.00;3.00;;;;;15.81;60.05;101616.59;5054958;28;64646;-57
2022/07/01 06:19:39;;;;;;;;;5.67;2.00;;;;;15.84;59.69;101618.22;5060039;28;45359;-54
2022/07/01 06:22:05;;;;;;;;;3.00;1.67;;;;;15.88;60.23;101625.13;5061548;27;45476;-54
2022/07/01 06:24:30;;;;;;;;;2.00;2.00;;;;;15.95;60.06;101618.44;5061276;28;46336;-53
2022/07/01 06:26:56;;;;;;;;;3.33;3.00;;;;;16.06;60.00;101616.94;5061516;28;67240;-54
2022/07/01 06:29:21;;;;;;;;;1.00;1.00;;;;;16.12;59.73;101613.88;5066612;28;61019;-55
2022/07/01 06:31:46;;;;;;;;;3.00;2.00;;;;;16.19;59.29;101613.41;5060690;28;64474;-56
2022/07/01 06:34:12;;;;;;;;;3.67;3.00;;;;;16.28;58.82;101621.84;5047587;28;72124;-57
2022/07/01 06:36:37;;;;;;;;;2.33;1.00;;;;;16.39;59.15;101630.13;5049217;28;67352;-55
2022/07/01 06:39:02;;;;;;;;;1.00;1.00;;;;;16.50;58.95;101633.00;5049181;28;58052;-56
2022/07/01 06:41:28;;;;;;;;;1.67;1.67;;;;;16.60;58.28;101627.06;5048147;28;46486;-56
2022/07/01 06:43:54;;;;;;;;;2.00;2.00;;;;;16.71;58.48;101632.59;5046505;28;46313;-56
2022/07/01 06:46:20;;;;;;;;;2.00;1.00;;;;;16.86;58.43;101642.38;5046628;28;45489;-55
2022/07/01 06:48:46;;;;;;;;;1.00;1.00;;;;;17.04;57.63;101634.16;5083960;27;45637;-55
2022/07/01 06:51:11;;;;;;;;;1.00;1.00;;;;;17.29;57.21;101635.25;5059822;28;45619;-54
2022/07/01 06:53:37;;;;;;;;;2.00;2.00;;;;;17.61;56.88;101632.25;5075465;28;58779;-54
2022/07/01 06:56:03;;;;;;;;;1.00;1.00;;;;;17.92;56.18;101638.28;5048769;28;45608;-54
2022/07/01 06:58:28;;;;;;;;;1.67;1.00;;;;;18.21;55.81;101635.44;5061491;28;45475;-55
2022/07/01 07:00:54;;;;;;;;;2.00;2.00;;;;;18.49;54.73;101629.84;5044202;28;45483;-54
2022/07/01 07:03:19;;;;;;;;;1.00;1.00;;;;;18.78;53.97;101631.44;5055580;28;45815;-55
2022/07/01 07:05:44;;;;;;;;;3.00;1.00;;;;;19.07;53.56;101633.91;5050172;27;45454;-54
2022/07/01 07:08:10;;;;;;;;;1.00;1.00;;;;;19.35;53.07;101638.13;5050860;28;66047;-53
2022/07/01 07:10:35;;;;;;;;;0.00;0.00;;;;;19.61;53.24;101636.16;5054311;28;47999;-55
2022/07/01 07:13:01;;;;;;;;;2.50;0.50;;;;;19.85;52.33;101629.91;5049821;28;46079;-52
2022/07/01 07:15:26;;;;;;;;;2.33;0.67;;;;;20.10;51.57;101631.59;5055956;28;68332;-54
2022/07/01 07:17:54;;;;;;;;;0.00;0.00;;;;;20.37;51.35;101634.97;5049658;28;59040;-55
2022/07/01 07:20:19;;;;;;;;;0.00;0.00;;;;;20.60;50.34;101635.84;5042869;28;46418;-56
2022/07/01 07:22:45;;;;;;;;;1.25;0.25;;;;;20.81;50.29;101631.44;5028086;28;45525;-55
2022/07/01 07:25:10;;;;;;;;;0.75;0.00;;;;;21.04;49.69;101635.97;5047380;28;68841;-55
2022/07/01 07:27:35;;;;;;;;;0.00;0.00;;;;;21.23;48.18;101633.47;5058673;28;58933;-54
2022/07/01 07:30:03;;;;;;;;;2.00;0.00;;;;;21.44;48.76;101635.41;5049161;28;65971;-55
2022/07/01 07:32:28;;;;;;;;;0.00;0.00;;;;;21.63;48.04;101621.22;5045662;28;46366;-56
2022/07/01 07:34:53;;;;;;;;;0.75;0.75;;;;;21.81;47.12;101625.09;5044658;28;46281;-55
2022/07/01 07:37:19;;;;;;;;;0.50;0.50;;;;;22.01;48.03;101621.66;5045388;28;46374;-55
2022/07/01 07:39:44;;;;;;;;;0.00;0.00;;;;;22.24;47.31;101620.53;5045829;28;60203;-55
2022/07/01 07:42:09;;;;;;;;;0.00;0.00;;;;;22.50;45.80;101620.13;5043281;28;68005;-55
2022/07/01 07:44:35;;;;;;;;;0.00;0.00;;;;;22.74;45.38;101617.09;5058925;28;45314;-55
2022/07/01 07:47:00;;;;;;;;;0.00;0.00;;;;;23.03;44.76;101632.59;5052822;28;65197;-56
2022/07/01 07:49:26;;;;;;;;;0.00;0.00;;;;;23.32;44.37;101628.28;5043678;28;45644;-55
2022/07/01 07:51:54;;;;;;;;;0.00;0.00;;;;;23.61;43.69;101622.88;5072366;28;46144;-56
2022/07/01 07:54:19;;;;;;;;;0.00;0.00;;;;;23.87;43.23;101623.16;5058718;28;45874;-55
2022/07/01 07:56:44;;;;;;;;;0.00;0.00;;;;;24.15;42.37;101627.88;5054024;28;45885;-55
2022/07/01 07:59:10;;;;;;;;;0.75;0.00;;;;;24.41;42.07;101628.94;5058823;28;45561;-55
2022/07/01 08:01:35;;;;;;;;;0.00;0.00;;;;;24.65;40.53;101627.59;5058081;28;57323;-55
2022/07/01 08:04:01;;;;;;;;;0.00;0.00;;;;;24.89;42.10;101629.78;5058389;28;45474;-55
2022/07/01 08:06:28;;;;;;;;;0.00;0.00;;;;;25.14;39.51;101630.06;5062469;28;45289;-55
2022/07/01 08:08:54;;;;;;;;;0.00;0.00;;;;;25.39;39.82;101630.38;5060912;27;45535;-55
2022/07/01 08:11:19;;;;;;;;;0.00;0.00;;;;;25.59;38.76;101628.34;5059310;28;46296;-55
2022/07/01 08:13:44;;;;;;;;;0.00;0.00;;;;;25.78;36.90;101627.34;5060749;27;71025;-54
2022/07/01 08:16:10;;;;;;;;;0.50;0.00;;;;;26.04;36.74;101629.28;5055821;28;65092;-53
2022/07/01 08:18:36;;;;;;;;;0.00;0.00;;;;;26.25;35.66;101631.66;5061727;28;45407;-54
2022/07/01 08:21:01;;;;;;;;;0.75;0.00;;;;;26.48;35.96;101629.25;5047385;28;45224;-54
2022/07/01 08:23:27;;;;;;;;;0.00;0.00;;;;;26.77;36.90;101636.22;5064357;27;68306;-54
2022/07/01 08:25:52;;;;;;;;;0.00;0.00;;;;;26.96;34.45;101643.31;5058928;28;45569;-54
2022/07/01 08:28:18;;;;;;;;;0.00;0.00;;;;;27.14;35.42;101648.63;5058557;28;45616;-54
2022/07/01 08:30:43;;;;;;;;;0.00;0.00;;;;;27.34;33.86;101656.53;5061693;28;46047;-54
2022/07/01 08:33:09;;;;;;;;;0.50;0.50;;;;;27.48;33.62;101647.75;5069469;27;45438;-53
2022/07/01 08:35:35;;;;;;;;;0.00;0.00;;;;;27.58;32.73;101646.75;5064078;28;45294;-54
2022/07/01 08:38:00;;;;;;;;;0.00;0.00;;;;;27.79;32.49;101644.34;5058844;27;45620;-53
2022/07/01 08:40:27;;;;;;;;;0.00;0.00;;;;;28.06;32.91;101654.13;5058617;28;46440;-54
2022/07/01 08:43:03;;;;;;;;;0.00;0.00;;;;;28.33;32.78;101652.06;5058519;28;45406;-54
2022/07/01 08:45:34;;;;;;;;;0.25;0.00;;;;;28.46;32.92;101645.16;5060339;28;45343;-55
2022/07/01 08:48:03;;;;;;;;;0.00;0.00;;;;;28.59;31.50;101642.75;5059990;27;45509;-53
2022/07/01 08:50:36;;;;;;;;;0.00;0.00;;;;;28.84;31.29;101651.75;5059853;28;45371;-54
2022/07/01 08:53:02;;;;;;;;;1.00;0.00;;;;;29.08;30.97;101647.19;5074096;28;45334;-53
2022/07/01 08:55:28;;;;;;;;;0.00;0.00;;;;;29.44;31.60;101651.28;5051131;28;45621;-54
2022/07/01 08:57:53;;;;;;;;;0.00;0.00;;;;;29.80;30.25;101665.28;5050113;28;45382;-54
2022/07/01 09:00:19;;;;;;;;;0.00;0.00;;;;;30.09;30.45;101662.81;5051152;28;45434;-55
2022/07/01 09:02:54;;;;;;;;;0.00;0.00;;;;;30.24;26.47;101665.59;5054808;28;45483;-54
2022/07/01 09:05:21;;;;;;;;;0.00;0.00;;;;;30.26;28.38;101655.28;5039738;28;45349;-54
2022/07/01 09:07:49;;;;;;;;;0.00;0.00;;;;;30.40;27.77;101661.84;5053234;28;45719;-55
2022/07/01 09:10:18;;;;;;;;;0.00;0.00;;;;;30.53;28.26;101664.81;5062483;28;45597;-54
2022/07/01 09:12:46;;;;;;;;;0.00;0.00;;;;;30.68;27.30;101659.34;5045262;28;45510;-55
2022/07/01 09:15:31;;;;;;;;;0.00;0.00;;;;;30.85;27.66;101662.72;5058054;28;45937;-55
2022/07/01 09:18:04;;;;;;;;;0.00;0.00;;;;;30.89;26.59;101664.03;5058873;28;45447;-55
2022/07/01 09:20:34;;;;;;;;;0.00;0.00;;;;;31.08;26.76;101662.63;5066053;28;45311;-55
2022/07/01 09:23:11;;;;;;;;;0.25;0.00;;;;;31.00;27.21;101676.44;5057593;28;45545;-54
2022/07/01 09:25:45;;;;;;;;;0.25;0.25;;;;;30.69;27.77;101674.78;5061954;28;45480;-54
2022/07/01 09:28:20;;;;;;;;;0.00;0.00;;;;;30.54;25.79;101672.00;5059577;28;45431;-55
2022/07/01 09:30:47;;;;;;;;;0.00;0.00;;;;;30.37;27.02;101685.00;5059148;28;45485;-55
2022/07/01 09:33:27;;;;;;;;;0.25;0.00;;;;;30.37;27.06;101682.25;5056431;28;45370;-54
2022/07/01 09:35:54;;;;;;;;;0.00;0.00;;;;;30.56;26.93;101680.91;5070049;28;45323;-54
2022/07/01 09:38:24;;;;;;;;;0.25;0.00;;;;;30.72;27.34;101674.38;5063674;28;45481;-54
2022/07/01 09:40:57;;;;;;;;;0.75;0.00;;;;;30.94;26.95;101679.97;5056447;28;46190;-53
2022/07/01 09:43:27;;;;;;;;;2.75;0.00;;;;;31.22;26.58;101671.03;5056728;28;45855;-55
2022/07/01 09:45:56;;;;;;;;;0.75;0.00;;;;;31.30;25.92;101684.66;5062013;28;45513;-55
2022/07/01 09:48:24;;;;;;;;;0.00;0.00;;;;;31.44;26.06;101683.75;5067911;27;45572;-55
2022/07/01 09:50:50;;;;;;;;;0.00;0.00;;;;;31.70;25.02;101682.38;5065012;28;45421;-55
2022/07/01 09:53:16;;;;;;;;;0.00;0.00;;;;;31.75;25.87;101668.03;5067424;28;45424;-54
2022/07/01 09:55:41;;;;;;;;;0.00;0.00;;;;;31.67;26.21;101669.88;5065225;28;45256;-54
2022/07/01 09:58:06;;;;;;;;;0.00;0.00;;;;;31.50;26.01;101679.38;5069015;27;63941;-55
2022/07/01 10:00:32;;;;;;;;;0.00;0.00;;;;;31.20;25.13;101678.59;5058460;28;45353;-55
2022/07/01 10:03:00;;;;;;;;;0.75;0.00;;;;;31.14;26.02;101675.56;5064642;27;45501;-55
2022/07/01 10:05:27;;;;;;;;;0.50;0.00;;;;;31.29;25.54;101677.44;5061002;28;45485;-55
2022/07/01 10:08:11;;;;;;;;;0.00;0.00;;;;;31.37;24.04;101673.72;5057101;28;45490;-55
2022/07/01 10:10:55;;;;;;;;;0.00;0.00;;;;;31.60;24.66;101679.94;5055308;28;46969;-55
2022/07/01 10:13:24;;;;;;;;;0.00;0.00;;;;;31.98;24.25;101684.31;5062354;28;45406;-54
2022/07/01 10:15:50;;;;;;;;;0.00;0.00;;;;;32.16;23.95;101690.19;5051045;28;45507;-55
2022/07/01 10:18:26;;;;;;;;;0.00;0.00;;;;;32.36;23.75;101688.66;5061619;28;56228;-54
2022/07/01 10:20:53;;;;;;;;;2.00;0.25;;;;;32.64;23.92;101683.97;5064677;28;45687;-53
2022/07/01 10:23:23;;;;;;;;;0.75;0.75;;;;;33.05;24.27;101670.44;5061595;28;45393;-55
2022/07/01 10:25:50;;;;;;;;;0.00;0.00;;;;;33.42;23.95;101676.56;5066248;27;45402;-54
2022/07/01 10:28:27;;;;;;;;;0.50;0.00;;;;;33.52;23.02;101677.00;5058662;28;45359;-55
2022/07/01 10:30:57;;;;;;;;;0.00;0.00;;;;;33.62;21.67;101673.81;5064122;28;46040;-56
2022/07/01 10:33:48;;;;;;;;;0.00;0.00;;;;;33.32;22.35;101676.94;5062803;27;45329;-55
2022/07/01 10:36:21;;;;;;;;;0.00;0.00;;;;;32.67;22.78;101685.47;5074409;28;45391;-56
2022/07/01 10:41:31;;;;;;;;;0.50;0.50;;;;;31.02;23.18;101677.09;5059155;28;46204;-54
2022/07/01 10:43:58;;;;;;;;;0.75;0.75;;;;;30.35;24.69;101684.34;5059669;28;45386;-54
2022/07/01 10:46:45;;;;;;;;;0.00;0.00;;;;;29.91;24.94;101687.81;5071208;28;45718;-54
2022/07/01 10:49:37;;;;;;;;;0.00;0.00;;;;;30.08;24.73;101681.16;5056397;28;45617;-55
2022/07/01 10:52:20;;;;;;;;;2.75;0.75;;;;;30.71;25.04;101683.66;5060475;28;46281;-54
2022/07/01 10:54:48;;;;;;;;;0.00;0.00;;;;;31.31;24.08;101681.69;5060266;28;45346;-54
2022/07/01 10:57:19;;;;;;;;;0.75;0.00;;;;;32.07;23.49;101677.66;5069172;27;45478;-55
2022/07/01 10:59:48;;;;;;;;;1.00;0.00;;;;;32.67;21.80;101679.97;5067549;27;45615;-54
2022/07/01 11:02:19;;;;;;;;;0.00;0.00;;;;;32.97;22.90;101679.75;5066134;28;46458;-53
2022/07/01 11:04:45;;;;;;;;;0.00;0.00;;;;;33.34;22.24;101682.25;5059696;28;45366;-55
2022/07/01 11:07:10;;;;;;;;;0.25;0.00;;;;;33.42;21.86;101680.16;5062776;28;45203;-55
2022/07/01 11:09:36;;;;;;;;;0.00;0.00;;;;;33.12;22.79;101677.69;5061072;28;45435;-56
2022/07/01 11:12:02;;;;;;;;;0.00;0.00;;;;;32.55;22.81;101679.69;5059213;28;75099;-55
2022/07/01 11:14:28;;;;;;;;;0.00;0.00;;;;;31.93;23.07;101689.56;5060333;28;45345;-55
2022/07/01 11:16:54;;;;;;;;;0.00;0.00;;;;;31.18;22.71;101692.53;5060469;28;45311;-53
2022/07/01 11:19:20;;;;;;;;;0.00;0.00;;;;;30.67;24.21;101690.56;5069041;28;45639;-50
2022/07/01 11:21:49;;;;;;;;;0.00;0.00;;;;;30.15;24.17;101684.03;5059212;28;45731;-54
2022/07/01 11:24:17;;;;;;;;;0.25;0.00;;;;;29.75;24.57;101686.91;5058655;28;45239;-54
2022/07/01 11:26:42;;;;;;;;;0.00;0.00;;;;;29.40;24.94;101677.34;5056564;28;45375;-55
2022/07/01 11:29:14;;;;;;;;;0.00;0.00;;;;;29.21;25.08;101679.47;5052735;28;65756;-55
2022/07/01 11:31:40;;;;;;;;;1.00;0.00;;;;;29.57;25.06;101678.09;5058238;27;46372;-55
2022/07/01 11:34:06;;;;;;;;;0.00;0.00;;;;;30.20;24.47;101678.84;5055216;28;73290;-56
2022/07/01 11:39:22;;;;;;;;;0.00;0.00;;;;;31.49;23.22;101673.03;5057650;28;45445;-56
2022/07/01 11:41:56;;;;;;;;;0.25;0.25;;;;;31.98;23.54;101681.56;5064781;28;46200;-56